sensor_id;sensor_type;location;lat;lon;timestamp;pressure;altitude;pressure_sealevel;temperature;humidity
71457;BME280;59263;48.160;11.752;2022-10-16T00:00:29;95978.09;;;11.69;100.00
71457;BME280;59263;48.160;11.752;2022-10-16T00:02:54;95982.88;;;11.64;100.00
71457;BME280;59263;48.160;11.752;2022-10-16T00:05:20;95981.41;;;11.61;100.00
71457;BME280;59263;48.160;11.752;2022-10-16T00:07:46;95972.50;;;11.64;100.00
71457;BME280;59263;48.160;11.752;2022-10-16T00:10:11;95978.66;;;11.63;100.00
71457;BME280;59263;48.160;11.752;2022-10-16T00:12:36;95977.84;;;11.62;100.00
71457;BME280;59263;48.160;11.752;2022-10-16T00:15:02;95979.75;;;11.60;100.00
71457;BME280;59263;48.160;11.752;2022-10-16T00:17:27;95980.59;;;11.61;100.00
71457;BME280;59263;48.160;11.752;2022-10-16T00:19:54;95989.03;;;11.63;100.00
71457;BME280;59263;48.160;11.752;2022-10-16T00:22:19;95980.00;;;11.67;100.00
71457;BME280;59263;48.160;11.752;2022-10-16T00:24:44;95989.03;;;11.63;100.00
71457;BME280;59263;48.160;11.752;2022-10-16T00:27:09;95996.16;;;11.61;100.00
71457;BME280;59263;48.160;11.752;2022-10-16T00:29:35;95995.75;;;11.56;100.00
71457;BME280;59263;48.160;11.752;2022-10-16T00:32:00;95985.09;;;11.59;100.00
71457;BME280;59263;48.160;11.752;2022-10-16T00:34:25;95975.69;;;11.58;100.00
71457;BME280;59263;48.160;11.752;2022-10-16T00:36:50;95974.06;;;11.57;100.00
71457;BME280;59263;48.160;11.752;2022-10-16T00:39:16;95980.47;;;11.53;100.00
71457;BME280;59263;48.160;11.752;2022-10-16T00:41:41;95993.22;;;11.46;100.00
71457;BME280;59263;48.160;11.752;2022-10-16T00:47:13;95984.50;;;11.37;100.00
71457;BME280;59263;48.160;11.752;2022-10-16T00:49:40;95982.09;;;11.36;100.00
71457;BME280;59263;48.160;11.752;2022-10-16T00:52:06;95972.00;;;11.33;100.00
71457;BME280;59263;48.160;11.752;2022-10-16T00:54:32;95974.06;;;11.29;100.00
71457;BME280;59263;48.160;11.752;2022-10-16T00:57:01;95969.03;;;11.28;100.00
71457;BME280;59263;48.160;11.752;2022-10-16T00:59:32;95982.09;;;11.36;100.00
71457;BME280;59263;48.160;11.752;2022-10-16T01:01:59;95981.56;;;11.32;100.00
71457;BME280;59263;48.160;11.752;2022-10-16T01:04:26;95979.41;;;11.28;100.00
71457;BME280;59263;48.160;11.752;2022-10-16T01:09:37;95985.66;;;11.25;100.00
71457;BME280;59263;48.160;11.752;2022-10-16T01:12:14;95978.19;;;11.22;100.00
71457;BME280;59263;48.160;11.752;2022-10-16T01:14:57;95985.69;;;11.15;100.00
71457;BME280;59263;48.160;11.752;2022-10-16T01:17:48;95995.84;;;11.09;100.00
71457;BME280;59263;48.160;11.752;2022-10-16T01:20:35;95986.31;;;11.00;100.00
71457;BME280;59263;48.160;11.752;2022-10-16T01:23:14;95991.50;;;11.00;100.00
71457;BME280;59263;48.160;11.752;2022-10-16T01:28:32;96005.16;;;10.82;100.00
71457;BME280;59263;48.160;11.752;2022-10-16T01:30:59;96001.63;;;10.83;100.00
71457;BME280;59263;48.160;11.752;2022-10-16T01:33:33;96006.66;;;10.85;100.00
71457;BME280;59263;48.160;11.752;2022-10-16T01:36:06;95994.13;;;10.80;100.00
71457;BME280;59263;48.160;11.752;2022-10-16T01:38:36;96005.16;;;10.82;100.00
71457;BME280;59263;48.160;11.752;2022-10-16T01:41:08;95993.31;;;10.80;100.00
71457;BME280;59263;48.160;11.752;2022-10-16T01:43:38;95999.97;;;10.82;100.00
71457;BME280;59263;48.160;11.752;2022-10-16T01:46:06;96002.88;;;10.79;100.00
71457;BME280;59263;48.160;11.752;2022-10-16T01:48:34;96001.09;;;10.80;100.00
71457;BME280;59263;48.160;11.752;2022-10-16T01:51:06;96010.06;;;10.85;100.00
71457;BME280;59263;48.160;11.752;2022-10-16T01:53:33;96008.44;;;10.84;100.00
71457;BME280;59263;48.160;11.752;2022-10-16T01:56:00;96005.56;;;10.87;100.00
71457;BME280;59263;48.160;11.752;2022-10-16T01:58:30;95997.81;;;10.87;100.00
71457;BME280;59263;48.160;11.752;2022-10-16T02:01:00;96004.34;;;10.82;100.00
71457;BME280;59263;48.160;11.752;2022-10-16T02:03:26;95994.78;;;10.82;100.00
71457;BME280;59263;48.160;11.752;2022-10-16T02:05:56;95991.81;;;10.77;100.00
71457;BME280;59263;48.160;11.752;2022-10-16T02:08:25;95993.72;;;10.75;100.00
71457;BME280;59263;48.160;11.752;2022-10-16T02:10:54;95986.91;;;10.74;100.00
71457;BME280;59263;48.160;11.752;2022-10-16T02:13:26;95994.41;;;10.77;100.00
71457;BME280;59263;48.160;11.752;2022-10-16T02:15:52;95986.81;;;10.76;100.00
71457;BME280;59263;48.160;11.752;2022-10-16T02:18:18;95997.00;;;10.77;100.00
71457;BME280;59263;48.160;11.752;2022-10-16T02:20:59;95990.75;;;10.80;100.00
71457;BME280;59263;48.160;11.752;2022-10-16T02:23:33;95992.50;;;10.79;100.00
71457;BME280;59263;48.160;11.752;2022-10-16T02:26:03;95992.38;;;10.81;100.00
71457;BME280;59263;48.160;11.752;2022-10-16T02:28:40;95983.09;;;10.78;100.00
71457;BME280;59263;48.160;11.752;2022-10-16T02:31:10;95995.22;;;10.78;100.00
71457;BME280;59263;48.160;11.752;2022-10-16T02:33:37;95990.31;;;10.75;100.00
71457;BME280;59263;48.160;11.752;2022-10-16T02:36:04;95988.03;;;10.72;100.00
71457;BME280;59263;48.160;11.752;2022-10-16T02:38:30;95995.38;;;10.76;100.00
71457;BME280;59263;48.160;11.752;2022-10-16T02:40:56;95995.66;;;10.73;100.00
71457;BME280;59263;48.160;11.752;2022-10-16T02:43:21;95994.03;;;10.72;100.00
71457;BME280;59263;48.160;11.752;2022-10-16T02:45:47;95995.38;;;10.66;100.00
71457;BME280;59263;48.160;11.752;2022-10-16T02:48:12;95993.59;;;10.67;100.00
71457;BME280;59263;48.160;11.752;2022-10-16T02:50:37;96001.38;;;10.67;100.00
71457;BME280;59263;48.160;11.752;2022-10-16T02:53:02;96002.47;;;10.64;100.00
71457;BME280;59263;48.160;11.752;2022-10-16T02:55:28;96004.53;;;10.61;100.00
71457;BME280;59263;48.160;11.752;2022-10-16T02:57:54;96005.19;;;10.63;100.00
71457;BME280;59263;48.160;11.752;2022-10-16T03:00:19;95992.94;;;10.65;100.00
71457;BME280;59263;48.160;11.752;2022-10-16T03:02:45;95995.53;;;10.65;100.00
71457;BME280;59263;48.160;11.752;2022-10-16T03:05:11;96004.09;;;10.56;100.00
71457;BME280;59263;48.160;11.752;2022-10-16T03:07:37;96012.84;;;10.55;100.00
71457;BME280;59263;48.160;11.752;2022-10-16T03:10:02;96012.16;;;10.53;100.00
71457;BME280;59263;48.160;11.752;2022-10-16T03:12:28;96001.41;;;10.48;100.00
71457;BME280;59263;48.160;11.752;2022-10-16T03:14:56;96005.88;;;10.55;100.00
71457;BME280;59263;48.160;11.752;2022-10-16T03:17:22;96003.44;;;10.54;100.00
71457;BME280;59263;48.160;11.752;2022-10-16T03:19:47;96002.22;;;10.48;100.00
71457;BME280;59263;48.160;11.752;2022-10-16T03:22:13;96005.63;;;10.49;100.00
71457;BME280;59263;48.160;11.752;2022-10-16T03:24:38;96003.84;;;10.49;100.00
71457;BME280;59263;48.160;11.752;2022-10-16T03:27:03;96007.28;;;10.50;100.00
71457;BME280;59263;48.160;11.752;2022-10-16T03:29:29;96013.69;;;10.46;100.00
71457;BME280;59263;48.160;11.752;2022-10-16T03:31:55;96013.94;;;10.43;100.00
71457;BME280;59263;48.160;11.752;2022-10-16T03:34:21;96004.41;;;10.33;100.00
71457;BME280;59263;48.160;11.752;2022-10-16T03:36:46;96009.84;;;10.30;100.00
71457;BME280;59263;48.160;11.752;2022-10-16T03:39:11;96019.13;;;10.33;100.00
71457;BME280;59263;48.160;11.752;2022-10-16T03:41:36;96013.13;;;10.32;100.00
71457;BME280;59263;48.160;11.752;2022-10-16T03:44:02;96010.94;;;10.37;100.00
71457;BME280;59263;48.160;11.752;2022-10-16T03:46:27;96005.09;;;10.35;100.00
71457;BME280;59263;48.160;11.752;2022-10-16T03:48:52;96011.63;;;10.39;100.00
71457;BME280;59263;48.160;11.752;2022-10-16T03:51:18;96018.56;;;10.39;100.00
71457;BME280;59263;48.160;11.752;2022-10-16T03:53:43;96011.63;;;10.39;100.00
71457;BME280;59263;48.160;11.752;2022-10-16T03:56:08;96025.22;;;10.41;100.00
71457;BME280;59263;48.160;11.752;2022-10-16T03:58:34;96025.91;;;10.44;100.00
71457;BME280;59263;48.160;11.752;2022-10-16T04:00:59;96025.66;;;10.47;100.00
71457;BME280;59263;48.160;11.752;2022-10-16T04:03:24;96031.75;;;10.55;100.00
71457;BME280;59263;48.160;11.752;2022-10-16T04:05:50;96027.13;;;10.59;100.00
71457;BME280;59263;48.160;11.752;2022-10-16T04:08:15;96033.00;;;10.61;100.00
71457;BME280;59263;48.160;11.752;2022-10-16T04:10:42;96025.75;;;10.74;100.00
71457;BME280;59263;48.160;11.752;2022-10-16T04:13:08;96017.00;;;10.75;100.00
71457;BME280;59263;48.160;11.752;2022-10-16T04:15:33;96027.25;;;10.77;100.00
71457;BME280;59263;48.160;11.752;2022-10-16T04:17:59;96023.69;;;10.78;100.00
71457;BME280;59263;48.160;11.752;2022-10-16T04:20:24;96016.47;;;10.81;100.00
71457;BME280;59263;48.160;11.752;2022-10-16T04:22:49;96021.63;;;10.91;100.00
71457;BME280;59263;48.160;11.752;2022-10-16T04:25:15;96019.31;;;10.98;100.00
71457;BME280;59263;48.160;11.752;2022-10-16T04:27:40;96008.94;;;10.98;100.00
71457;BME280;59263;48.160;11.752;2022-10-16T04:30:06;96017.09;;;11.03;100.00
71457;BME280;59263;48.160;11.752;2022-10-16T04:32:31;96012.59;;;11.05;100.00
71457;BME280;59263;48.160;11.752;2022-10-16T04:34:56;96014.91;;;11.08;100.00
71457;BME280;59263;48.160;11.752;2022-10-16T04:37:25;96014.91;;;11.08;100.00
71457;BME280;59263;48.160;11.752;2022-10-16T04:39:51;96016.13;;;11.04;100.00
71457;BME280;59263;48.160;11.752;2022-10-16T04:42:17;96020.06;;;11.08;100.00
71457;BME280;59263;48.160;11.752;2022-10-16T04:44:42;96024.44;;;11.07;100.00
71457;BME280;59263;48.160;11.752;2022-10-16T04:47:07;96027.84;;;11.08;100.00
71457;BME280;59263;48.160;11.752;2022-10-16T04:49:33;96022.00;;;11.06;100.00
71457;BME280;59263;48.160;11.752;2022-10-16T04:51:58;96022.00;;;11.06;100.00
71457;BME280;59263;48.160;11.752;2022-10-16T04:54:23;96024.97;;;11.11;100.00
71457;BME280;59263;48.160;11.752;2022-10-16T04:56:48;96017.91;;;11.13;100.00
71457;BME280;59263;48.160;11.752;2022-10-16T04:59:16;96029.19;;;11.12;100.00
71457;BME280;59263;48.160;11.752;2022-10-16T05:01:42;96017.50;;;11.08;100.00
71457;BME280;59263;48.160;11.752;2022-10-16T05:04:07;96021.72;;;11.09;100.00
71457;BME280;59263;48.160;11.752;2022-10-16T05:06:33;96027.28;;;11.14;100.00
71457;BME280;59263;48.160;11.752;2022-10-16T05:08:58;96016.78;;;11.15;100.00
71457;BME280;59263;48.160;11.752;2022-10-16T05:11:23;96015.41;;;11.21;100.00
71457;BME280;59263;48.160;11.752;2022-10-16T05:13:49;96016.22;;;11.22;100.00
71457;BME280;59263;48.160;11.752;2022-10-16T05:16:14;96017.03;;;11.22;100.00
71457;BME280;59263;48.160;11.752;2022-10-16T05:18:39;96014.97;;;11.26;100.00
71457;BME280;59263;48.160;11.752;2022-10-16T05:21:05;96016.59;;;11.27;100.00
71457;BME280;59263;48.160;11.752;2022-10-16T05:23:31;96024.25;;;11.28;100.00
71457;BME280;59263;48.160;11.752;2022-10-16T05:25:57;96021.38;;;11.31;100.00
71457;BME280;59263;48.160;11.752;2022-10-16T05:28:25;96020.41;;;11.32;100.00
71457;BME280;59263;48.160;11.752;2022-10-16T05:30:50;96013.69;;;11.39;100.00
71457;BME280;59263;48.160;11.752;2022-10-16T05:33:16;96022.13;;;11.42;100.00
71457;BME280;59263;48.160;11.752;2022-10-16T05:35:41;96015.84;;;11.44;100.00
71457;BME280;59263;48.160;11.752;2022-10-16T05:38:07;96016.00;;;11.43;100.00
71457;BME280;59263;48.160;11.752;2022-10-16T05:40:32;96037.81;;;11.50;100.00
71457;BME280;59263;48.160;11.752;2022-10-16T05:42:57;96042.31;;;11.48;100.00
71457;BME280;59263;48.160;11.752;2022-10-16T05:45:22;96044.19;;;11.46;100.00
71457;BME280;59263;48.160;11.752;2022-10-16T05:47:48;96035.34;;;11.48;100.00
71457;BME280;59263;48.160;11.752;2022-10-16T05:50:13;96045.25;;;11.53;100.00
71457;BME280;59263;48.160;11.752;2022-10-16T05:52:38;96039.28;;;11.52;100.00
71457;BME280;59263;48.160;11.752;2022-10-16T05:55:04;96040.78;;;11.55;100.00
71457;BME280;59263;48.160;11.752;2022-10-16T05:57:30;96050.03;;;11.57;100.00
71457;BME280;59263;48.160;11.752;2022-10-16T05:59:55;96063.53;;;11.61;100.00
71457;BME280;59263;48.160;11.752;2022-10-16T06:02:21;96058.19;;;11.62;100.00
71457;BME280;59263;48.160;11.752;2022-10-16T06:04:46;96061.59;;;11.63;100.00
71457;BME280;59263;48.160;11.752;2022-10-16T06:07:11;96063.53;;;11.61;100.00
71457;BME280;59263;48.160;11.752;2022-10-16T06:09:37;96059.16;;;11.61;100.00
71457;BME280;59263;48.160;11.752;2022-10-16T06:12:02;96070.34;;;11.62;100.00
71457;BME280;59263;48.160;11.752;2022-10-16T06:14:28;96067.59;;;11.63;100.00
71457;BME280;59263;48.160;11.752;2022-10-16T06:16:53;96073.59;;;11.64;100.00
71457;BME280;59263;48.160;11.752;2022-10-16T06:19:18;96065.97;;;11.62;100.00
71457;BME280;59263;48.160;11.752;2022-10-16T06:21:44;96072.66;;;11.65;100.00
71457;BME280;59263;48.160;11.752;2022-10-16T06:24:09;96077.69;;;11.67;100.00
71457;BME280;59263;48.160;11.752;2022-10-16T06:26:35;96078.50;;;11.67;100.00
71457;BME280;59263;48.160;11.752;2022-10-16T06:29:00;96083.41;;;11.70;100.00
71457;BME280;59263;48.160;11.752;2022-10-16T06:31:27;96080.53;;;11.73;100.00
71457;BME280;59263;48.160;11.752;2022-10-16T06:33:55;96081.06;;;11.77;100.00
71457;BME280;59263;48.160;11.752;2022-10-16T06:36:21;96087.72;;;11.79;100.00
71457;BME280;59263;48.160;11.752;2022-10-16T06:38:47;96093.44;;;11.83;100.00
71457;BME280;59263;48.160;11.752;2022-10-16T06:41:14;96095.72;;;11.96;100.00
71457;BME280;59263;48.160;11.752;2022-10-16T06:43:40;96101.59;;;11.98;100.00
71457;BME280;59263;48.160;11.752;2022-10-16T06:46:08;96102.25;;;12.00;100.00
71457;BME280;59263;48.160;11.752;2022-10-16T06:48:34;96111.53;;;12.02;100.00
71457;BME280;59263;48.160;11.752;2022-10-16T06:53:31;96114.50;;;12.07;100.00
71457;BME280;59263;48.160;11.752;2022-10-16T06:55:57;96113.53;;;12.08;100.00
71457;BME280;59263;48.160;11.752;2022-10-16T06:58:22;96119.56;;;12.09;100.00
71457;BME280;59263;48.160;11.752;2022-10-16T07:00:48;96124.75;;;12.09;100.00
71457;BME280;59263;48.160;11.752;2022-10-16T07:03:14;96130.47;;;12.13;100.00
71457;BME280;59263;48.160;11.752;2022-10-16T07:05:43;96126.09;;;12.13;100.00
71457;BME280;59263;48.160;11.752;2022-10-16T07:08:09;96127.72;;;12.14;100.00
71457;BME280;59263;48.160;11.752;2022-10-16T07:10:35;96118.97;;;12.15;100.00
71457;BME280;59263;48.160;11.752;2022-10-16T07:13:00;96125.13;;;12.14;100.00
71457;BME280;59263;48.160;11.752;2022-10-16T07:15:26;96128.88;;;12.20;100.00
71457;BME280;59263;48.160;11.752;2022-10-16T07:17:52;96150.50;;;12.20;100.00
71457;BME280;59263;48.160;11.752;2022-10-16T07:20:18;96149.53;;;12.21;100.00
71457;BME280;59263;48.160;11.752;2022-10-16T07:22:43;96140.25;;;12.19;100.00
71457;BME280;59263;48.160;11.752;2022-10-16T07:25:08;96145.97;;;12.22;100.00
71457;BME280;59263;48.160;11.752;2022-10-16T07:27:34;96148.94;;;12.27;100.00
71457;BME280;59263;48.160;11.752;2022-10-16T07:30:00;96152.03;;;12.31;100.00
71457;BME280;59263;48.160;11.752;2022-10-16T07:32:25;96144.50;;;12.38;100.00
71457;BME280;59263;48.160;11.752;2022-10-16T07:34:52;96148.81;;;12.47;100.00
71457;BME280;59263;48.160;11.752;2022-10-16T07:37:17;96144.41;;;12.57;100.00
71457;BME280;59263;48.160;11.752;2022-10-16T07:39:42;96153.72;;;12.68;100.00
71457;BME280;59263;48.160;11.752;2022-10-16T07:42:08;96160.19;;;12.81;100.00
71457;BME280;59263;48.160;11.752;2022-10-16T07:44:33;96155.50;;;13.03;100.00
71457;BME280;59263;48.160;11.752;2022-10-16T07:46:58;96164.88;;;13.31;100.00
71457;BME280;59263;48.160;11.752;2022-10-16T07:49:24;96168.66;;;13.63;100.00
71457;BME280;59263;48.160;11.752;2022-10-16T07:51:49;96181.94;;;13.86;100.00
71457;BME280;59263;48.160;11.752;2022-10-16T07:54:14;96180.25;;;14.03;100.00
71457;BME280;59263;48.160;11.752;2022-10-16T07:56:39;96167.97;;;14.21;100.00
71457;BME280;59263;48.160;11.752;2022-10-16T07:59:05;96175.84;;;14.46;100.00
71457;BME280;59263;48.160;11.752;2022-10-16T08:01:30;96182.78;;;14.63;100.00
71457;BME280;59263;48.160;11.752;2022-10-16T08:03:55;96180.38;;;14.78;100.00
71457;BME280;59263;48.160;11.752;2022-10-16T08:06:21;96178.44;;;14.96;100.00
71457;BME280;59263;48.160;11.752;2022-10-16T08:08:47;96178.94;;;15.16;100.00
71457;BME280;59263;48.160;11.752;2022-10-16T08:11:12;96174.06;;;15.30;100.00
71457;BME280;59263;48.160;11.752;2022-10-16T08:13:39;96177.97;;;15.34;100.00
71457;BME280;59263;48.160;11.752;2022-10-16T08:16:04;96175.53;;;15.40;100.00
71457;BME280;59263;48.160;11.752;2022-10-16T08:18:34;96180.59;;;15.50;100.00
71457;BME280;59263;48.160;11.752;2022-10-16T08:21:01;96175.53;;;15.73;100.00
71457;BME280;59263;48.160;11.752;2022-10-16T08:23:27;96173.03;;;15.88;100.00
71457;BME280;59263;48.160;11.752;2022-10-16T08:26:00;96175.28;;;15.99;100.00
71457;BME280;59263;48.160;11.752;2022-10-16T08:28:26;96178.84;;;16.14;100.00
71457;BME280;59263;48.160;11.752;2022-10-16T08:30:51;96167.34;;;16.32;100.00
71457;BME280;59263;48.160;11.752;2022-10-16T08:33:17;96174.09;;;16.49;100.00
71457;BME280;59263;48.160;11.752;2022-10-16T08:35:42;96168.09;;;16.72;100.00
71457;BME280;59263;48.160;11.752;2022-10-16T08:38:07;96167.41;;;16.86;100.00
71457;BME280;59263;48.160;11.752;2022-10-16T08:40:34;96178.91;;;17.00;100.00
71457;BME280;59263;48.160;11.752;2022-10-16T08:48:27;96189.84;;;17.26;100.00
71457;BME280;59263;48.160;11.752;2022-10-16T08:50:54;96177.50;;;17.35;100.00
71457;BME280;59263;48.160;11.752;2022-10-16T08:53:43;96177.03;;;17.54;100.00
71457;BME280;59263;48.160;11.752;2022-10-16T08:56:10;96177.66;;;17.71;100.00
71457;BME280;59263;48.160;11.752;2022-10-16T08:58:35;96179.97;;;17.89;100.00
71457;BME280;59263;48.160;11.752;2022-10-16T09:01:03;96175.41;;;18.06;100.00
71457;BME280;59263;48.160;11.752;2022-10-16T09:09:14;96190.34;;;18.42;100.00
71457;BME280;59263;48.160;11.752;2022-10-16T09:14:52;96193.47;;;18.67;100.00
71457;BME280;59263;48.160;11.752;2022-10-16T09:22:40;96189.81;;;18.97;100.00
71457;BME280;59263;48.160;11.752;2022-10-16T09:25:14;96190.56;;;19.13;100.00
71457;BME280;59263;48.160;11.752;2022-10-16T09:27:42;96180.06;;;19.34;100.00
71457;BME280;59263;48.160;11.752;2022-10-16T09:30:19;96175.38;;;19.51;100.00
71457;BME280;59263;48.160;11.752;2022-10-16T09:32:48;96174.03;;;19.62;100.00
71457;BME280;59263;48.160;11.752;2022-10-16T09:35:21;96171.03;;;19.65;100.00
71457;BME280;59263;48.160;11.752;2022-10-16T09:37:54;96178.00;;;19.79;100.00
71457;BME280;59263;48.160;11.752;2022-10-16T09:40:35;96177.09;;;19.93;100.00
71457;BME280;59263;48.160;11.752;2022-10-16T09:43:23;96191.47;;;19.97;100.00
71457;BME280;59263;48.160;11.752;2022-10-16T09:46:01;96194.53;;;20.01;100.00
71457;BME280;59263;48.160;11.752;2022-10-16T09:48:33;96190.94;;;20.09;100.00
71457;BME280;59263;48.160;11.752;2022-10-16T09:51:03;96173.81;;;20.19;100.00
71457;BME280;59263;48.160;11.752;2022-10-16T09:53:42;96185.81;;;20.35;100.00
71457;BME280;59263;48.160;11.752;2022-10-16T09:56:10;96173.13;;;20.45;100.00
71457;BME280;59263;48.160;11.752;2022-10-16T09:58:42;96176.06;;;20.64;100.00
71457;BME280;59263;48.160;11.752;2022-10-16T10:01:13;96178.56;;;20.85;100.00
71457;BME280;59263;48.160;11.752;2022-10-16T10:03:41;96183.03;;;20.91;100.00
71457;BME280;59263;48.160;11.752;2022-10-16T10:06:17;96179.81;;;21.09;100.00
71457;BME280;59263;48.160;11.752;2022-10-16T10:09:20;96181.88;;;21.14;100.00
71457;BME280;59263;48.160;11.752;2022-10-16T10:12:00;96181.09;;;21.33;100.00
71457;BME280;59263;48.160;11.752;2022-10-16T10:14:44;96187.78;;;21.42;100.00
71457;BME280;59263;48.160;11.752;2022-10-16T10:17:15;96191.03;;;21.44;100.00
71457;BME280;59263;48.160;11.752;2022-10-16T10:25:15;96172.19;;;21.67;100.00
71457;BME280;59263;48.160;11.752;2022-10-16T10:30:24;96168.31;;;21.96;100.00
71457;BME280;59263;48.160;11.752;2022-10-16T10:39:25;96172.53;;;22.11;100.00
71457;BME280;59263;48.160;11.752;2022-10-16T10:47:30;96169.69;;;22.32;100.00
71457;BME280;59263;48.160;11.752;2022-10-16T10:56:14;96166.75;;;22.47;100.00
71457;BME280;59263;48.160;11.752;2022-10-16T11:06:59;96168.19;;;22.50;100.00
71457;BME280;59263;48.160;11.752;2022-10-16T11:09:33;96173.69;;;22.41;100.00
71457;BME280;59263;48.160;11.752;2022-10-16T11:12:32;96178.53;;;22.51;100.00
71457;BME280;59263;48.160;11.752;2022-10-16T11:17:52;96177.25;;;22.67;100.00
71457;BME280;59263;48.160;11.752;2022-10-16T11:20:32;96174.84;;;22.59;100.00
71457;BME280;59263;48.160;11.752;2022-10-16T11:23:16;96171.78;;;22.62;100.00
71457;BME280;59263;48.160;11.752;2022-10-16T11:25:43;96172.00;;;22.60;100.00
71457;BME280;59263;48.160;11.752;2022-10-16T11:28:13;96164.28;;;22.59;100.00
71457;BME280;59263;48.160;11.752;2022-10-16T11:30:47;96170.78;;;22.56;100.00
71457;BME280;59263;48.160;11.752;2022-10-16T11:35:47;96163.22;;;22.73;100.00
71457;BME280;59263;48.160;11.752;2022-10-16T11:41:10;96166.97;;;22.90;100.00
71457;BME280;59263;48.160;11.752;2022-10-16T11:43:43;96165.34;;;22.89;100.00
71457;BME280;59263;48.160;11.752;2022-10-16T11:46:15;96168.22;;;22.88;100.00
71457;BME280;59263;48.160;11.752;2022-10-16T11:48:50;96165.78;;;22.86;100.00
71457;BME280;59263;48.160;11.752;2022-10-16T11:51:38;96162.91;;;22.94;100.00
71457;BME280;59263;48.160;11.752;2022-10-16T11:54:28;96159.22;;;23.02;100.00
71457;BME280;59263;48.160;11.752;2022-10-16T11:57:00;96159.59;;;23.06;100.00
71457;BME280;59263;48.160;11.752;2022-10-16T11:59:33;96152.94;;;23.28;100.00
71457;BME280;59263;48.160;11.752;2022-10-16T12:07:41;96168.34;;;23.31;100.00
71457;BME280;59263;48.160;11.752;2022-10-16T12:10:25;96156.19;;;23.30;100.00
71457;BME280;59263;48.160;11.752;2022-10-16T12:12:51;96153.69;;;23.35;100.00
71457;BME280;59263;48.160;11.752;2022-10-16T12:15:28;96156.19;;;23.30;100.00
71457;BME280;59263;48.160;11.752;2022-10-16T12:17:54;96165.13;;;23.29;100.00
71457;BME280;59263;48.160;11.752;2022-10-16T12:20:31;96156.13;;;23.37;100.00
71457;BME280;59263;48.160;11.752;2022-10-16T12:23:00;96165.44;;;23.39;100.00
71457;BME280;59263;48.160;11.752;2022-10-16T12:25:53;96163.41;;;23.41;100.00
71457;BME280;59263;48.160;11.752;2022-10-16T12:28:21;96166.53;;;23.57;100.00
71457;BME280;59263;48.160;11.752;2022-10-16T12:30:58;96156.31;;;23.67;100.00
71457;BME280;59263;48.160;11.752;2022-10-16T12:33:33;96158.25;;;23.78;100.00
71457;BME280;59263;48.160;11.752;2022-10-16T12:36:02;96158.34;;;23.65;100.00
71457;BME280;59263;48.160;11.752;2022-10-16T12:38:37;96152.03;;;23.66;100.00
71457;BME280;59263;48.160;11.752;2022-10-16T12:41:08;96153.47;;;23.62;100.00
71457;BME280;59263;48.160;11.752;2022-10-16T12:43:41;96151.78;;;23.74;100.00
71457;BME280;59263;48.160;11.752;2022-10-16T12:48:37;96148.84;;;24.44;95.53
71457;BME280;59263;48.160;11.752;2022-10-16T12:56:52;96147.91;;;24.69;100.00
71457;BME280;59263;48.160;11.752;2022-10-16T12:59:35;96146.97;;;24.63;100.00
71457;BME280;59263;48.160;11.752;2022-10-16T13:02:18;96149.06;;;24.73;100.00
71457;BME280;59263;48.160;11.752;2022-10-16T13:05:05;96146.81;;;24.58;100.00
71457;BME280;59263;48.160;11.752;2022-10-16T13:07:41;96150.22;;;24.47;100.00
71457;BME280;59263;48.160;11.752;2022-10-16T13:18:21;96144.78;;;24.05;100.00
71457;BME280;59263;48.160;11.752;2022-10-16T13:23:22;96152.81;;;23.48;100.00
71457;BME280;59263;48.160;11.752;2022-10-16T13:26:12;96157.38;;;23.34;100.00
71457;BME280;59263;48.160;11.752;2022-10-16T13:28:42;96159.91;;;23.48;100.00
71457;BME280;59263;48.160;11.752;2022-10-16T13:31:18;96150.69;;;23.57;100.00
71457;BME280;59263;48.160;11.752;2022-10-16T13:33:51;96156.19;;;23.55;100.00
71457;BME280;59263;48.160;11.752;2022-10-16T13:36:25;96157.00;;;23.56;100.00
71457;BME280;59263;48.160;11.752;2022-10-16T13:39:11;96164.13;;;23.55;100.00
71457;BME280;59263;48.160;11.752;2022-10-16T13:41:37;96157.81;;;23.56;100.00
71457;BME280;59263;48.160;11.752;2022-10-16T13:44:03;96162.50;;;23.79;100.00
71457;BME280;59263;48.160;11.752;2022-10-16T13:46:30;96160.25;;;23.83;100.00
71457;BME280;59263;48.160;11.752;2022-10-16T13:49:10;96158.50;;;23.95;100.00
71457;BME280;59263;48.160;11.752;2022-10-16T13:51:36;96157.97;;;24.48;100.00
71457;BME280;59263;48.160;11.752;2022-10-16T13:54:01;96162.09;;;25.34;100.00
71457;BME280;59263;48.160;11.752;2022-10-16T13:56:29;96161.31;;;26.28;86.70
71457;BME280;59263;48.160;11.752;2022-10-16T13:58:59;96161.25;;;26.92;73.29
71457;BME280;59263;48.160;11.752;2022-10-16T14:01:28;96155.13;;;27.82;81.47
71457;BME280;59263;48.160;11.752;2022-10-16T14:04:00;96149.06;;;28.69;66.17
71457;BME280;59263;48.160;11.752;2022-10-16T14:06:27;96152.47;;;28.87;55.92
71457;BME280;59263;48.160;11.752;2022-10-16T14:11:27;96153.78;;;30.08;50.61
71457;BME280;59263;48.160;11.752;2022-10-16T14:13:53;96155.63;;;30.07;41.80
71457;BME280;59263;48.160;11.752;2022-10-16T14:16:28;96157.66;;;29.90;44.29
71457;BME280;59263;48.160;11.752;2022-10-16T14:18:57;96161.06;;;28.94;52.46
71457;BME280;59263;48.160;11.752;2022-10-16T14:21:23;96167.19;;;27.90;65.66
71457;BME280;59263;48.160;11.752;2022-10-16T14:23:49;96160.34;;;27.26;85.80
71457;BME280;59263;48.160;11.752;2022-10-16T14:26:17;96163.25;;;26.56;84.63
71457;BME280;59263;48.160;11.752;2022-10-16T14:28:45;96166.69;;;25.93;80.27